sensor_id;sensor_type;location;lat;lon;timestamp;P1;durP1;ratioP1;P2;durP2;ratioP2
20203;SDS011;10261;49.010;12.034;2023-05-10T00:01:01;2.90;;;2.65;;
20203;SDS011;10261;49.010;12.034;2023-05-10T00:02:04;3.85;;;3.05;;
20203;SDS011;10261;49.010;12.034;2023-05-10T00:03:07;2.80;;;2.60;;
20203;SDS011;10261;49.010;12.034;2023-05-10T00:04:10;3.30;;;3.00;;
20203;SDS011;10261;49.010;12.034;2023-05-10T00:05:13;3.30;;;2.90;;
20203;SDS011;10261;49.010;12.034;2023-05-10T00:06:15;3.60;;;2.90;;
20203;SDS011;10261;49.010;12.034;2023-05-10T00:07:18;3.20;;;2.90;;
20203;SDS011;10261;49.010;12.034;2023-05-10T00:08:20;3.60;;;2.92;;
20203;SDS011;10261;49.010;12.034;2023-05-10T00:09:24;9.82;;;3.45;;
20203;SDS011;10261;49.010;12.034;2023-05-10T00:10:26;3.13;;;2.83;;
20203;SDS011;10261;49.010;12.034;2023-05-10T00:11:29;4.55;;;2.88;;
20203;SDS011;10261;49.010;12.034;2023-05-10T00:12:31;2.85;;;2.63;;
20203;SDS011;10261;49.010;12.034;2023-05-10T00:13:33;2.80;;;2.60;;
20203;SDS011;10261;49.010;12.034;2023-05-10T00:14:37;3.17;;;2.88;;
20203;SDS011;10261;49.010;12.034;2023-05-10T00:15:40;3.97;;;3.00;;
20203;SDS011;10261;49.010;12.034;2023-05-10T00:16:42;3.33;;;3.00;;
20203;SDS011;10261;49.010;12.034;2023-05-10T00:17:45;6.22;;;3.05;;
20203;SDS011;10261;49.010;12.034;2023-05-10T00:18:47;3.40;;;2.72;;
20203;SDS011;10261;49.010;12.034;2023-05-10T00:19:50;3.40;;;3.10;;
20203;SDS011;10261;49.010;12.034;2023-05-10T00:20:52;2.70;;;2.50;;
20203;SDS011;10261;49.010;12.034;2023-05-10T00:21:55;2.47;;;2.13;;
20203;SDS011;10261;49.010;12.034;2023-05-10T00:22:57;3.22;;;2.92;;
20203;SDS011;10261;49.010;12.034;2023-05-10T00:24:00;3.78;;;2.80;;
20203;SDS011;10261;49.010;12.034;2023-05-10T00:25:02;3.55;;;2.85;;
20203;SDS011;10261;49.010;12.034;2023-05-10T00:26:06;3.45;;;3.10;;
20203;SDS011;10261;49.010;12.034;2023-05-10T00:27:08;3.30;;;3.00;;
20203;SDS011;10261;49.010;12.034;2023-05-10T00:28:11;6.30;;;2.95;;
20203;SDS011;10261;49.010;12.034;2023-05-10T00:29:13;3.75;;;2.95;;
20203;SDS011;10261;49.010;12.034;2023-05-10T00:30:18;4.25;;;3.38;;
20203;SDS011;10261;49.010;12.034;2023-05-10T00:31:20;3.53;;;3.00;;
20203;SDS011;10261;49.010;12.034;2023-05-10T00:32:23;4.78;;;2.45;;
20203;SDS011;10261;49.010;12.034;2023-05-10T00:33:25;3.13;;;2.80;;
20203;SDS011;10261;49.010;12.034;2023-05-10T00:34:28;2.92;;;2.70;;
20203;SDS011;10261;49.010;12.034;2023-05-10T00:35:30;9.75;;;3.38;;
20203;SDS011;10261;49.010;12.034;2023-05-10T00:36:33;3.22;;;2.55;;
20203;SDS011;10261;49.010;12.034;2023-05-10T00:37:35;3.90;;;2.65;;
20203;SDS011;10261;49.010;12.034;2023-05-10T00:38:38;3.95;;;3.25;;
20203;SDS011;10261;49.010;12.034;2023-05-10T00:39:40;3.58;;;3.10;;
20203;SDS011;10261;49.010;12.034;2023-05-10T00:40:43;5.18;;;2.83;;
20203;SDS011;10261;49.010;12.034;2023-05-10T00:41:45;3.78;;;2.75;;
20203;SDS011;10261;49.010;12.034;2023-05-10T00:42:48;6.78;;;2.53;;
20203;SDS011;10261;49.010;12.034;2023-05-10T00:43:50;3.40;;;2.78;;
20203;SDS011;10261;49.010;12.034;2023-05-10T00:44:53;3.00;;;2.53;;
20203;SDS011;10261;49.010;12.034;2023-05-10T00:45:56;3.65;;;3.35;;
20203;SDS011;10261;49.010;12.034;2023-05-10T00:46:59;3.20;;;2.90;;
20203;SDS011;10261;49.010;12.034;2023-05-10T00:48:02;3.20;;;2.90;;
20203;SDS011;10261;49.010;12.034;2023-05-10T00:49:05;3.03;;;2.50;;
20203;SDS011;10261;49.010;12.034;2023-05-10T00:50:08;2.92;;;2.28;;
20203;SDS011;10261;49.010;12.034;2023-05-10T00:51:12;2.97;;;2.67;;
20203;SDS011;10261;49.010;12.034;2023-05-10T00:52:14;5.72;;;2.50;;
20203;SDS011;10261;49.010;12.034;2023-05-10T00:53:17;2.40;;;2.20;;
20203;SDS011;10261;49.010;12.034;2023-05-10T00:54:20;3.00;;;2.60;;
20203;SDS011;10261;49.010;12.034;2023-05-10T00:55:23;5.22;;;2.83;;
20203;SDS011;10261;49.010;12.034;2023-05-10T00:56:25;3.00;;;2.70;;
20203;SDS011;10261;49.010;12.034;2023-05-10T00:57:30;3.13;;;2.58;;
20203;SDS011;10261;49.010;12.034;2023-05-10T00:58:32;4.60;;;2.50;;
20203;SDS011;10261;49.010;12.034;2023-05-10T00:59:35;3.30;;;2.55;;
20203;SDS011;10261;49.010;12.034;2023-05-10T01:00:37;2.53;;;2.33;;
20203;SDS011;10261;49.010;12.034;2023-05-10T01:01:45;3.55;;;2.75;;
20203;SDS011;10261;49.010;12.034;2023-05-10T01:02:47;2.85;;;2.50;;
20203;SDS011;10261;49.010;12.034;2023-05-10T01:03:51;5.00;;;3.13;;
20203;SDS011;10261;49.010;12.034;2023-05-10T01:04:53;3.08;;;2.78;;
20203;SDS011;10261;49.010;12.034;2023-05-10T01:05:57;3.90;;;3.05;;
20203;SDS011;10261;49.010;12.034;2023-05-10T01:06:59;5.88;;;3.10;;
20203;SDS011;10261;49.010;12.034;2023-05-10T01:08:02;3.80;;;3.13;;
20203;SDS011;10261;49.010;12.034;2023-05-10T01:09:04;3.08;;;2.78;;
20203;SDS011;10261;49.010;12.034;2023-05-10T01:10:08;3.60;;;3.30;;
20203;SDS011;10261;49.010;12.034;2023-05-10T01:11:11;2.80;;;2.60;;
20203;SDS011;10261;49.010;12.034;2023-05-10T01:12:14;2.80;;;2.60;;
20203;SDS011;10261;49.010;12.034;2023-05-10T01:13:18;7.20;;;3.45;;
20203;SDS011;10261;49.010;12.034;2023-05-10T01:14:29;3.63;;;3.28;;
20203;SDS011;10261;49.010;12.034;2023-05-10T01:15:31;5.60;;;3.03;;
20203;SDS011;10261;49.010;12.034;2023-05-10T01:16:36;3.38;;;3.08;;
20203;SDS011;10261;49.010;12.034;2023-05-10T01:17:42;4.05;;;3.15;;
20203;SDS011;10261;49.010;12.034;2023-05-10T01:18:47;3.63;;;2.95;;
20203;SDS011;10261;49.010;12.034;2023-05-10T01:19:50;3.85;;;3.05;;
20203;SDS011;10261;49.010;12.034;2023-05-10T01:20:55;3.25;;;2.95;;
20203;SDS011;10261;49.010;12.034;2023-05-10T01:22:05;7.05;;;2.58;;
20203;SDS011;10261;49.010;12.034;2023-05-10T01:23:33;3.50;;;2.80;;
20203;SDS011;10261;49.010;12.034;2023-05-10T01:26:36;5.60;;;2.97;;
20203;SDS011;10261;49.010;12.034;2023-05-10T01:27:56;3.90;;;3.10;;
20203;SDS011;10261;49.010;12.034;2023-05-10T01:29:44;5.60;;;2.65;;
20203;SDS011;10261;49.010;12.034;2023-05-10T01:31:22;3.58;;;3.28;;
20203;SDS011;10261;49.010;12.034;2023-05-10T01:32:37;3.55;;;3.17;;
20203;SDS011;10261;49.010;12.034;2023-05-10T01:33:47;3.17;;;2.88;;
20203;SDS011;10261;49.010;12.034;2023-05-10T01:34:54;3.63;;;3.33;;
20203;SDS011;10261;49.010;12.034;2023-05-10T01:36:03;5.50;;;2.70;;
20203;SDS011;10261;49.010;12.034;2023-05-10T01:37:10;4.45;;;3.03;;
20203;SDS011;10261;49.010;12.034;2023-05-10T01:38:20;3.38;;;2.90;;
20203;SDS011;10261;49.010;12.034;2023-05-10T01:39:29;3.15;;;2.92;;
20203;SDS011;10261;49.010;12.034;2023-05-10T01:40:39;4.00;;;2.90;;
20203;SDS011;10261;49.010;12.034;2023-05-10T01:41:51;3.53;;;2.80;;
20203;SDS011;10261;49.010;12.034;2023-05-10T01:42:58;2.97;;;2.70;;
20203;SDS011;10261;49.010;12.034;2023-05-10T01:44:06;3.90;;;3.33;;
20203;SDS011;10261;49.010;12.034;2023-05-10T01:45:18;3.47;;;3.05;;
20203;SDS011;10261;49.010;12.034;2023-05-10T01:46:27;4.82;;;3.85;;
20203;SDS011;10261;49.010;12.034;2023-05-10T01:47:35;3.05;;;2.75;;
20203;SDS011;10261;49.010;12.034;2023-05-10T01:48:46;3.20;;;2.90;;
20203;SDS011;10261;49.010;12.034;2023-05-10T01:49:49;2.78;;;2.58;;
20203;SDS011;10261;49.010;12.034;2023-05-10T01:50:54;5.05;;;3.25;;
20203;SDS011;10261;49.010;12.034;2023-05-10T01:51:59;4.05;;;3.67;;
20203;SDS011;10261;49.010;12.034;2023-05-10T01:53:07;3.78;;;3.28;;
20203;SDS011;10261;49.010;12.034;2023-05-10T01:54:12;3.33;;;2.97;;
20203;SDS011;10261;49.010;12.034;2023-05-10T01:55:15;5.15;;;3.35;;
20203;SDS011;10261;49.010;12.034;2023-05-10T01:56:20;7.68;;;3.17;;
20203;SDS011;10261;49.010;12.034;2023-05-10T01:57:27;3.65;;;3.35;;
20203;SDS011;10261;49.010;12.034;2023-05-10T01:58:35;3.78;;;3.10;;
20203;SDS011;10261;49.010;12.034;2023-05-10T01:59:41;3.08;;;2.67;;
20203;SDS011;10261;49.010;12.034;2023-05-10T02:00:47;7.43;;;3.30;;
20203;SDS011;10261;49.010;12.034;2023-05-10T02:01:52;3.80;;;3.40;;
20203;SDS011;10261;49.010;12.034;2023-05-10T02:02:57;4.07;;;3.60;;
20203;SDS011;10261;49.010;12.034;2023-05-10T02:04:02;3.80;;;3.35;;
20203;SDS011;10261;49.010;12.034;2023-05-10T02:05:08;4.03;;;3.05;;
20203;SDS011;10261;49.010;12.034;2023-05-10T02:06:11;5.40;;;3.45;;
20203;SDS011;10261;49.010;12.034;2023-05-10T02:07:16;3.67;;;3.38;;
20203;SDS011;10261;49.010;12.034;2023-05-10T02:08:20;4.15;;;3.03;;
20203;SDS011;10261;49.010;12.034;2023-05-10T02:09:25;7.22;;;3.28;;
20203;SDS011;10261;49.010;12.034;2023-05-10T02:10:29;6.28;;;3.65;;
20203;SDS011;10261;49.010;12.034;2023-05-10T02:11:34;3.40;;;3.10;;
20203;SDS011;10261;49.010;12.034;2023-05-10T02:12:39;4.72;;;3.53;;
20203;SDS011;10261;49.010;12.034;2023-05-10T02:13:44;4.15;;;3.53;;
20203;SDS011;10261;49.010;12.034;2023-05-10T02:14:48;5.28;;;3.72;;
20203;SDS011;10261;49.010;12.034;2023-05-10T02:15:54;4.07;;;3.33;;
20203;SDS011;10261;49.010;12.034;2023-05-10T02:16:58;3.75;;;3.22;;
20203;SDS011;10261;49.010;12.034;2023-05-10T02:18:04;5.32;;;4.30;;
20203;SDS011;10261;49.010;12.034;2023-05-10T02:19:07;9.73;;;3.80;;
20203;SDS011;10261;49.010;12.034;2023-05-10T02:20:11;3.55;;;3.25;;
20203;SDS011;10261;49.010;12.034;2023-05-10T02:21:14;4.95;;;4.28;;
20203;SDS011;10261;49.010;12.034;2023-05-10T02:22:18;3.60;;;3.30;;
20203;SDS011;10261;49.010;12.034;2023-05-10T02:23:21;4.82;;;3.60;;
20203;SDS011;10261;49.010;12.034;2023-05-10T02:24:25;4.40;;;3.65;;
20203;SDS011;10261;49.010;12.034;2023-05-10T02:25:28;3.83;;;3.22;;
20203;SDS011;10261;49.010;12.034;2023-05-10T02:26:32;7.50;;;3.95;;
20203;SDS011;10261;49.010;12.034;2023-05-10T02:27:36;4.13;;;3.72;;
20203;SDS011;10261;49.010;12.034;2023-05-10T02:28:40;5.75;;;3.83;;
20203;SDS011;10261;49.010;12.034;2023-05-10T02:29:43;4.30;;;3.90;;
20203;SDS011;10261;49.010;12.034;2023-05-10T02:30:47;6.78;;;4.65;;
20203;SDS011;10261;49.010;12.034;2023-05-10T02:31:51;4.90;;;4.20;;
20203;SDS011;10261;49.010;12.034;2023-05-10T02:32:56;5.28;;;4.32;;
20203;SDS011;10261;49.010;12.034;2023-05-10T02:34:01;5.68;;;4.35;;
20203;SDS011;10261;49.010;12.034;2023-05-10T02:35:06;7.20;;;5.00;;
20203;SDS011;10261;49.010;12.034;2023-05-10T02:36:09;5.25;;;4.75;;
20203;SDS011;10261;49.010;12.034;2023-05-10T02:37:13;4.38;;;3.90;;
20203;SDS011;10261;49.010;12.034;2023-05-10T02:38:17;5.97;;;3.95;;
20203;SDS011;10261;49.010;12.034;2023-05-10T02:39:22;3.78;;;3.47;;
20203;SDS011;10261;49.010;12.034;2023-05-10T02:40:25;4.43;;;4.00;;
20203;SDS011;10261;49.010;12.034;2023-05-10T02:41:30;5.65;;;4.32;;
20203;SDS011;10261;49.010;12.034;2023-05-10T02:42:35;4.97;;;4.05;;
20203;SDS011;10261;49.010;12.034;2023-05-10T02:43:39;6.43;;;4.63;;
20203;SDS011;10261;49.010;12.034;2023-05-10T02:44:43;4.45;;;4.05;;
20203;SDS011;10261;49.010;12.034;2023-05-10T02:45:49;5.80;;;4.05;;
20203;SDS011;10261;49.010;12.034;2023-05-10T02:46:52;5.57;;;4.30;;
20203;SDS011;10261;49.010;12.034;2023-05-10T02:47:57;6.72;;;4.20;;
20203;SDS011;10261;49.010;12.034;2023-05-10T02:49:01;5.03;;;4.55;;
20203;SDS011;10261;49.010;12.034;2023-05-10T02:50:04;5.07;;;4.57;;
20203;SDS011;10261;49.010;12.034;2023-05-10T02:51:07;4.10;;;3.70;;
20203;SDS011;10261;49.010;12.034;2023-05-10T02:52:10;5.40;;;4.82;;
20203;SDS011;10261;49.010;12.034;2023-05-10T02:53:18;4.80;;;4.38;;
20203;SDS011;10261;49.010;12.034;2023-05-10T02:54:26;5.32;;;4.40;;
20203;SDS011;10261;49.010;12.034;2023-05-10T02:55:32;4.80;;;4.40;;
20203;SDS011;10261;49.010;12.034;2023-05-10T02:56:40;4.40;;;4.00;;
20203;SDS011;10261;49.010;12.034;2023-05-10T02:57:48;7.85;;;5.10;;
20203;SDS011;10261;49.010;12.034;2023-05-10T02:58:56;5.95;;;5.10;;
20203;SDS011;10261;49.010;12.034;2023-05-10T02:59:58;5.00;;;4.00;;
20203;SDS011;10261;49.010;12.034;2023-05-10T03:01:01;4.72;;;4.30;;
20203;SDS011;10261;49.010;12.034;2023-05-10T03:02:03;6.68;;;5.18;;
20203;SDS011;10261;49.010;12.034;2023-05-10T03:03:06;5.60;;;4.05;;
20203;SDS011;10261;49.010;12.034;2023-05-10T03:04:10;6.15;;;5.07;;
20203;SDS011;10261;49.010;12.034;2023-05-10T03:05:13;7.32;;;4.60;;
20203;SDS011;10261;49.010;12.034;2023-05-10T03:06:15;6.53;;;5.40;;
20203;SDS011;10261;49.010;12.034;2023-05-10T03:07:18;5.25;;;4.75;;
20203;SDS011;10261;49.010;12.034;2023-05-10T03:08:22;12.73;;;5.22;;
20203;SDS011;10261;49.010;12.034;2023-05-10T03:09:26;7.22;;;5.75;;
20203;SDS011;10261;49.010;12.034;2023-05-10T03:10:28;8.48;;;5.47;;
20203;SDS011;10261;49.010;12.034;2023-05-10T03:11:36;5.32;;;4.68;;
20203;SDS011;10261;49.010;12.034;2023-05-10T03:12:54;6.05;;;4.50;;
20203;SDS011;10261;49.010;12.034;2023-05-10T03:14:09;5.65;;;4.60;;
20203;SDS011;10261;49.010;12.034;2023-05-10T03:15:18;5.70;;;4.85;;
20203;SDS011;10261;49.010;12.034;2023-05-10T03:16:28;5.97;;;5.28;;
20203;SDS011;10261;49.010;12.034;2023-05-10T03:17:45;7.28;;;5.35;;
20203;SDS011;10261;49.010;12.034;2023-05-10T03:18:54;5.35;;;4.85;;
20203;SDS011;10261;49.010;12.034;2023-05-10T03:20:06;5.82;;;5.25;;
20203;SDS011;10261;49.010;12.034;2023-05-10T03:21:13;5.32;;;4.50;;
20203;SDS011;10261;49.010;12.034;2023-05-10T03:22:21;5.85;;;5.25;;
20203;SDS011;10261;49.010;12.034;2023-05-10T03:23:29;8.52;;;5.50;;
20203;SDS011;10261;49.010;12.034;2023-05-10T03:24:36;5.30;;;4.60;;
20203;SDS011;10261;49.010;12.034;2023-05-10T03:25:41;5.68;;;5.03;;
20203;SDS011;10261;49.010;12.034;2023-05-10T03:26:45;6.32;;;5.65;;
20203;SDS011;10261;49.010;12.034;2023-05-10T03:27:48;5.85;;;5.25;;
20203;SDS011;10261;49.010;12.034;2023-05-10T03:28:51;10.25;;;6.85;;
20203;SDS011;10261;49.010;12.034;2023-05-10T03:29:55;6.03;;;5.43;;
20203;SDS011;10261;49.010;12.034;2023-05-10T03:30:58;5.20;;;4.70;;
20203;SDS011;10261;49.010;12.034;2023-05-10T03:32:02;5.70;;;5.03;;
20203;SDS011;10261;49.010;12.034;2023-05-10T03:33:04;6.75;;;5.85;;
20203;SDS011;10261;49.010;12.034;2023-05-10T03:34:08;7.68;;;4.88;;
20203;SDS011;10261;49.010;12.034;2023-05-10T03:35:12;6.18;;;5.15;;
20203;SDS011;10261;49.010;12.034;2023-05-10T03:36:15;6.47;;;5.43;;
20203;SDS011;10261;49.010;12.034;2023-05-10T03:37:18;7.78;;;5.82;;
20203;SDS011;10261;49.010;12.034;2023-05-10T03:38:20;5.68;;;5.07;;
20203;SDS011;10261;49.010;12.034;2023-05-10T03:39:23;9.13;;;5.30;;
20203;SDS011;10261;49.010;12.034;2023-05-10T03:40:26;6.47;;;5.20;;
20203;SDS011;10261;49.010;12.034;2023-05-10T03:41:30;6.53;;;4.97;;
20203;SDS011;10261;49.010;12.034;2023-05-10T03:42:32;5.68;;;4.85;;
20203;SDS011;10261;49.010;12.034;2023-05-10T03:43:35;7.03;;;5.13;;
20203;SDS011;10261;49.010;12.034;2023-05-10T03:44:37;5.95;;;4.03;;
20203;SDS011;10261;49.010;12.034;2023-05-10T03:45:40;4.78;;;4.10;;
20203;SDS011;10261;49.010;12.034;2023-05-10T03:46:42;5.40;;;4.90;;
20203;SDS011;10261;49.010;12.034;2023-05-10T03:47:46;5.20;;;4.65;;
20203;SDS011;10261;49.010;12.034;2023-05-10T03:48:48;6.18;;;5.25;;
20203;SDS011;10261;49.010;12.034;2023-05-10T03:49:51;5.60;;;4.95;;
20203;SDS011;10261;49.010;12.034;2023-05-10T03:50:54;7.25;;;5.25;;
20203;SDS011;10261;49.010;12.034;2023-05-10T03:51:57;6.82;;;5.32;;
20203;SDS011;10261;49.010;12.034;2023-05-10T03:52:59;9.23;;;5.45;;
20203;SDS011;10261;49.010;12.034;2023-05-10T03:54:03;6.15;;;5.00;;
20203;SDS011;10261;49.010;12.034;2023-05-10T03:55:05;6.25;;;5.68;;
20203;SDS011;10261;49.010;12.034;2023-05-10T03:56:09;8.70;;;6.10;;
20203;SDS011;10261;49.010;12.034;2023-05-10T03:57:12;9.95;;;6.43;;
20203;SDS011;10261;49.010;12.034;2023-05-10T03:58:15;7.43;;;5.82;;
20203;SDS011;10261;49.010;12.034;2023-05-10T03:59:17;8.70;;;6.07;;
20203;SDS011;10261;49.010;12.034;2023-05-10T04:00:20;6.20;;;5.60;;
20203;SDS011;10261;49.010;12.034;2023-05-10T04:01:22;6.15;;;5.22;;
20203;SDS011;10261;49.010;12.034;2023-05-10T04:02:25;6.30;;;5.47;;
20203;SDS011;10261;49.010;12.034;2023-05-10T04:03:27;7.65;;;5.85;;
20203;SDS011;10261;49.010;12.034;2023-05-10T04:04:31;9.13;;;5.55;;
20203;SDS011;10261;49.010;12.034;2023-05-10T04:05:32;9.57;;;6.32;;
20203;SDS011;10261;49.010;12.034;2023-05-10T04:06:37;8.80;;;7.75;;
20203;SDS011;10261;49.010;12.034;2023-05-10T04:07:39;9.75;;;5.90;;
20203;SDS011;10261;49.010;12.034;2023-05-10T04:08:42;6.25;;;5.10;;
20203;SDS011;10261;49.010;12.034;2023-05-10T04:09:44;6.15;;;5.50;;
20203;SDS011;10261;49.010;12.034;2023-05-10T04:10:47;7.10;;;5.30;;
20203;SDS011;10261;49.010;12.034;2023-05-10T04:11:49;10.32;;;6.85;;
20203;SDS011;10261;49.010;12.034;2023-05-10T04:12:52;7.68;;;6.20;;
20203;SDS011;10261;49.010;12.034;2023-05-10T04:13:54;8.00;;;6.43;;
20203;SDS011;10261;49.010;12.034;2023-05-10T04:14:57;8.50;;;6.80;;
20203;SDS011;10261;49.010;12.034;2023-05-10T04:15:59;9.90;;;6.53;;
20203;SDS011;10261;49.010;12.034;2023-05-10T04:17:02;6.93;;;6.22;;
20203;SDS011;10261;49.010;12.034;2023-05-10T04:18:04;6.68;;;5.97;;
20203;SDS011;10261;49.010;12.034;2023-05-10T04:19:09;9.30;;;6.22;;
20203;SDS011;10261;49.010;12.034;2023-05-10T04:20:11;8.75;;;6.60;;
20203;SDS011;10261;49.010;12.034;2023-05-10T04:21:15;9.60;;;7.05;;
20203;SDS011;10261;49.010;12.034;2023-05-10T04:22:18;6.78;;;5.82;;
20203;SDS011;10261;49.010;12.034;2023-05-10T04:23:21;7.55;;;6.35;;
20203;SDS011;10261;49.010;12.034;2023-05-10T04:24:23;8.18;;;5.82;;
20203;SDS011;10261;49.010;12.034;2023-05-10T04:25:26;11.48;;;7.65;;
20203;SDS011;10261;49.010;12.034;2023-05-10T04:26:28;8.68;;;6.25;;
20203;SDS011;10261;49.010;12.034;2023-05-10T04:27:32;9.07;;;7.07;;
20203;SDS011;10261;49.010;12.034;2023-05-10T04:28:34;8.32;;;7.43;;
20203;SDS011;10261;49.010;12.034;2023-05-10T04:29:37;8.98;;;6.53;;
20203;SDS011;10261;49.010;12.034;2023-05-10T04:30:39;7.18;;;5.70;;
20203;SDS011;10261;49.010;12.034;2023-05-10T04:31:42;7.32;;;6.00;;
20203;SDS011;10261;49.010;12.034;2023-05-10T04:32:44;8.57;;;5.78;;
20203;SDS011;10261;49.010;12.034;2023-05-10T04:33:47;6.97;;;6.28;;
20203;SDS011;10261;49.010;12.034;2023-05-10T04:34:49;7.80;;;5.70;;
20203;SDS011;10261;49.010;12.034;2023-05-10T04:35:53;7.68;;;6.15;;
20203;SDS011;10261;49.010;12.034;2023-05-10T04:36:54;10.32;;;6.55;;
20203;SDS011;10261;49.010;12.034;2023-05-10T04:37:59;8.30;;;6.40;;
20203;SDS011;10261;49.010;12.034;2023-05-10T04:39:01;6.65;;;5.47;;
20203;SDS011;10261;49.010;12.034;2023-05-10T04:40:05;15.45;;;6.70;;
20203;SDS011;10261;49.010;12.034;2023-05-10T04:41:08;8.60;;;6.15;;
20203;SDS011;10261;49.010;12.034;2023-05-10T04:42:13;7.53;;;6.60;;
20203;SDS011;10261;49.010;12.034;2023-05-10T04:43:16;6.70;;;5.57;;
20203;SDS011;10261;49.010;12.034;2023-05-10T04:44:19;8.80;;;6.28;;
20203;SDS011;10261;49.010;12.034;2023-05-10T04:45:21;7.97;;;6.30;;
20203;SDS011;10261;49.010;12.034;2023-05-10T04:46:23;10.27;;;6.85;;
20203;SDS011;10261;49.010;12.034;2023-05-10T04:47:27;9.32;;;7.65;;
20203;SDS011;10261;49.010;12.034;2023-05-10T04:48:29;8.73;;;6.47;;
20203;SDS011;10261;49.010;12.034;2023-05-10T04:49:32;8.20;;;6.50;;
20203;SDS011;10261;49.010;12.034;2023-05-10T04:50:34;9.43;;;6.72;;
20203;SDS011;10261;49.010;12.034;2023-05-10T04:51:37;8.00;;;6.70;;
20203;SDS011;10261;49.010;12.034;2023-05-10T04:52:39;9.95;;;7.20;;
20203;SDS011;10261;49.010;12.034;2023-05-10T04:53:44;6.80;;;6.10;;
20203;SDS011;10261;49.010;12.034;2023-05-10T04:55:02;8.20;;;6.60;;
20203;SDS011;10261;49.010;12.034;2023-05-10T04:56:06;9.05;;;6.53;;
20203;SDS011;10261;49.010;12.034;2023-05-10T04:57:08;12.65;;;7.07;;
20203;SDS011;10261;49.010;12.034;2023-05-10T04:58:11;7.85;;;7.00;;
20203;SDS011;10261;49.010;12.034;2023-05-10T04:59:13;10.43;;;7.03;;
20203;SDS011;10261;49.010;12.034;2023-05-10T05:00:16;12.15;;;7.47;;
20203;SDS011;10261;49.010;12.034;2023-05-10T05:01:19;10.25;;;6.47;;
20203;SDS011;10261;49.010;12.034;2023-05-10T05:02:21;8.23;;;6.82;;
20203;SDS011;10261;49.010;12.034;2023-05-10T05:03:24;7.20;;;6.45;;
20203;SDS011;10261;49.010;12.034;2023-05-10T05:04:27;8.18;;;6.85;;
20203;SDS011;10261;49.010;12.034;2023-05-10T05:05:29;14.52;;;6.90;;
20203;SDS011;10261;49.010;12.034;2023-05-10T05:06:31;10.63;;;6.90;;
20203;SDS011;10261;49.010;12.034;2023-05-10T05:07:37;9.63;;;7.28;;
20203;SDS011;10261;49.010;12.034;2023-05-10T05:08:39;8.02;;;6.18;;
20203;SDS011;10261;49.010;12.034;2023-05-10T05:09:43;11.65;;;7.10;;
20203;SDS011;10261;49.010;12.034;2023-05-10T05:10:45;9.52;;;6.47;;
20203;SDS011;10261;49.010;12.034;2023-05-10T05:11:51;8.30;;;6.95;;
20203;SDS011;10261;49.010;12.034;2023-05-10T05:12:53;9.45;;;6.70;;
20203;SDS011;10261;49.010;12.034;2023-05-10T05:13:56;10.15;;;7.47;;
20203;SDS011;10261;49.010;12.034;2023-05-10T05:15:00;8.35;;;6.45;;
20203;SDS011;10261;49.010;12.034;2023-05-10T05:16:04;9.30;;;6.72;;
20203;SDS011;10261;49.010;12.034;2023-05-10T05:17:07;7.70;;;6.35;;
20203;SDS011;10261;49.010;12.034;2023-05-10T05:18:10;10.57;;;6.60;;
20203;SDS011;10261;49.010;12.034;2023-05-10T05:19:12;8.90;;;7.05;;
20203;SDS011;10261;49.010;12.034;2023-05-10T05:20:15;9.85;;;6.55;;
20203;SDS011;10261;49.010;12.034;2023-05-10T05:21:17;8.85;;;6.25;;
20203;SDS011;10261;49.010;12.034;2023-05-10T05:22:21;10.80;;;7.18;;
20203;SDS011;10261;49.010;12.034;2023-05-10T05:23:28;16.85;;;7.85;;
20203;SDS011;10261;49.010;12.034;2023-05-10T05:24:34;8.70;;;6.78;;
20203;SDS011;10261;49.010;12.034;2023-05-10T05:25:38;13.75;;;6.40;;
20203;SDS011;10261;49.010;12.034;2023-05-10T05:26:41;10.25;;;7.00;;
20203;SDS011;10261;49.010;12.034;2023-05-10T05:27:43;10.27;;;7.70;;
20203;SDS011;10261;49.010;12.034;2023-05-10T05:28:46;10.00;;;7.40;;
20203;SDS011;10261;49.010;12.034;2023-05-10T05:29:52;10.20;;;8.27;;
20203;SDS011;10261;49.010;12.034;2023-05-10T05:30:54;8.60;;;7.43;;
20203;SDS011;10261;49.010;12.034;2023-05-10T05:31:57;8.25;;;6.75;;
20203;SDS011;10261;49.010;12.034;2023-05-10T05:32:59;12.50;;;7.75;;
20203;SDS011;10261;49.010;12.034;2023-05-10T05:34:02;9.80;;;6.35;;
20203;SDS011;10261;49.010;12.034;2023-05-10T05:35:04;11.32;;;7.55;;
20203;SDS011;10261;49.010;12.034;2023-05-10T05:36:08;8.07;;;6.70;;
20203;SDS011;10261;49.010;12.034;2023-05-10T05:37:12;8.32;;;6.95;;
20203;SDS011;10261;49.010;12.034;2023-05-10T05:38:15;11.63;;;6.68;;
20203;SDS011;10261;49.010;12.034;2023-05-10T05:39:17;8.15;;;6.93;;
20203;SDS011;10261;49.010;12.034;2023-05-10T05:40:20;10.57;;;7.95;;
20203;SDS011;10261;49.010;12.034;2023-05-10T05:41:23;11.10;;;7.68;;
20203;SDS011;10261;49.010;12.034;2023-05-10T05:42:27;10.73;;;8.13;;
20203;SDS011;10261;49.010;12.034;2023-05-10T05:43:29;11.82;;;8.65;;
20203;SDS011;10261;49.010;12.034;2023-05-10T05:44:32;9.23;;;8.05;;
20203;SDS011;10261;49.010;12.034;2023-05-10T05:45:34;10.60;;;8.02;;
20203;SDS011;10261;49.010;12.034;2023-05-10T05:46:37;11.98;;;7.65;;
20203;SDS011;10261;49.010;12.034;2023-05-10T05:47:39;12.18;;;9.38;;
20203;SDS011;10261;49.010;12.034;2023-05-10T05:48:42;9.98;;;7.57;;
20203;SDS011;10261;49.010;12.034;2023-05-10T05:49:44;8.70;;;6.97;;
20203;SDS011;10261;49.010;12.034;2023-05-10T05:50:47;8.43;;;7.63;;
20203;SDS011;10261;49.010;12.034;2023-05-10T05:51:49;9.48;;;7.75;;
20203;SDS011;10261;49.010;12.034;2023-05-10T05:52:52;10.65;;;8.15;;
20203;SDS011;10261;49.010;12.034;2023-05-10T05:53:54;8.20;;;7.32;;
20203;SDS011;10261;49.010;12.034;2023-05-10T05:54:57;9.50;;;7.28;;
20203;SDS011;10261;49.010;12.034;2023-05-10T05:55:59;9.07;;;7.15;;
20203;SDS011;10261;49.010;12.034;2023-05-10T05:57:04;10.48;;;8.02;;
20203;SDS011;10261;49.010;12.034;2023-05-10T05:58:06;9.63;;;7.25;;
20203;SDS011;10261;49.010;12.034;2023-05-10T05:59:09;10.80;;;7.65;;
20203;SDS011;10261;49.010;12.034;2023-05-10T06:00:12;10.77;;;8.15;;
20203;SDS011;10261;49.010;12.034;2023-05-10T06:01:15;9.10;;;7.65;;
20203;SDS011;10261;49.010;12.034;2023-05-10T06:02:18;10.75;;;8.05;;
20203;SDS011;10261;49.010;12.034;2023-05-10T06:03:20;11.63;;;7.90;;
20203;SDS011;10261;49.010;12.034;2023-05-10T06:04:23;10.48;;;7.50;;
20203;SDS011;10261;49.010;12.034;2023-05-10T06:05:26;13.23;;;8.60;;
20203;SDS011;10261;49.010;12.034;2023-05-10T06:06:28;9.18;;;7.45;;
20203;SDS011;10261;49.010;12.034;2023-05-10T06:07:30;9.70;;;7.65;;
20203;SDS011;10261;49.010;12.034;2023-05-10T06:08:33;10.57;;;8.32;;
20203;SDS011;10261;49.010;12.034;2023-05-10T06:09:37;11.68;;;8.40;;
20203;SDS011;10261;49.010;12.034;2023-05-10T06:10:39;10.15;;;8.27;;
20203;SDS011;10261;49.010;12.034;2023-05-10T06:11:42;11.90;;;7.85;;
20203;SDS011;10261;49.010;12.034;2023-05-10T06:12:46;11.02;;;8.30;;
20203;SDS011;10261;49.010;12.034;2023-05-10T06:13:49;10.55;;;7.78;;
20203;SDS011;10261;49.010;12.034;2023-05-10T06:14:51;9.20;;;7.88;;
20203;SDS011;10261;49.010;12.034;2023-05-10T06:15:54;12.77;;;9.18;;
20203;SDS011;10261;49.010;12.034;2023-05-10T06:16:56;9.98;;;7.82;;
20203;SDS011;10261;49.010;12.034;2023-05-10T06:18:01;7.88;;;7.07;;
20203;SDS011;10261;49.010;12.034;2023-05-10T06:19:03;11.57;;;8.50;;
20203;SDS011;10261;49.010;12.034;2023-05-10T06:20:06;14.57;;;7.57;;
20203;SDS011;10261;49.010;12.034;2023-05-10T06:21:10;12.18;;;8.77;;
20203;SDS011;10261;49.010;12.034;2023-05-10T06:22:12;12.73;;;8.35;;
20203;SDS011;10261;49.010;12.034;2023-05-10T06:23:15;10.63;;;7.85;;